TimeMST,TemperatureF,Dew PointF,Humidity,Sea Level PressureIn,VisibilityMPH,Wind Direction,Wind SpeedMPH,Gust SpeedMPH,PrecipitationIn,Events,Conditions,WindDirDegrees,DateUTC
12:55 AM,33.8,27.5,78,30.26,10.0,ESE,12.7,-,N/A,,Clear,110,2012-11-15 07:55:00
1:55 AM,33.8,28.6,81,30.26,10.0,ESE,6.9,-,N/A,,Clear,120,2012-11-15 08:55:00
2:48 AM,33.8,30.2,87,30.27,9.0,SE,8.1,-,N/A,,Clear,140,2012-11-15 09:48:00
2:55 AM,33.4,30.4,89,30.27,8.0,ESE,6.9,-,N/A,,Clear,120,2012-11-15 09:55:00
3:23 AM,32.0,30.2,93,30.28,7.0,ESE,6.9,-,N/A,,Clear,110,2012-11-15 10:23:00
3:55 AM,33.1,29.5,87,30.27,10.0,SSE,10.4,-,N/A,,Clear,150,2012-11-15 10:55:00
4:07 AM,32.0,30.2,93,30.28,9.0,ESE,8.1,-,N/A,,Clear,110,2012-11-15 11:07:00
4:08 AM,32.0,30.2,93,30.28,9.0,ESE,8.1,-,N/A,,Clear,110,2012-11-15 11:08:00
4:55 AM,32.2,28.4,86,30.29,10.0,ESE,6.9,-,N/A,,Clear,120,2012-11-15 11:55:00
5:55 AM,32.2,26.2,79,30.30,10.0,ESE,16.1,-,N/A,,Clear,110,2012-11-15 12:55:00
6:55 AM,33.1,25.7,74,30.31,10.0,ESE,18.4,-,N/A,,Clear,120,2012-11-15 13:55:00
7:55 AM,32.0,24.8,75,30.32,10.0,East,18.4,-,N/A,,Clear,100,2012-11-15 14:55:00
8:55 AM,34.2,26.2,73,30.33,10.0,ESE,18.4,-,N/A,,Clear,110,2012-11-15 15:55:00
9:55 AM,37.0,27.9,69,30.32,10.0,East,16.1,-,N/A,,Clear,100,2012-11-15 16:55:00
10:55 AM,40.1,29.3,65,30.32,10.0,ESE,13.8,-,N/A,,Clear,120,2012-11-15 17:55:00
11:55 AM,43.9,31.6,62,30.29,10.0,ESE,6.9,-,N/A,,Clear,110,2012-11-15 18:55:00
12:55 PM,46.2,31.5,56,30.26,10.0,Calm,Calm,-,N/A,,Clear,0,2012-11-15 19:55:00
1:55 PM,47.3,31.8,55,30.25,10.0,Calm,Calm,-,N/A,,Clear,0,2012-11-15 20:55:00
2:55 PM,48.9,31.8,52,30.23,10.0,Calm,Calm,-,N/A,,Clear,0,2012-11-15 21:55:00
3:55 PM,49.6,31.1,49,30.21,10.0,Calm,Calm,-,N/A,,Clear,0,2012-11-15 22:55:00
4:55 PM,46.4,32.0,57,30.21,10.0,WSW,3.5,-,N/A,,Clear,250,2012-11-15 23:55:00
5:55 PM,40.5,32.9,74,30.24,10.0,West,3.5,-,N/A,,Clear,280,2012-11-16 00:55:00
6:55 PM,40.6,31.5,70,30.21,10.0,Calm,Calm,-,N/A,,Clear,0,2012-11-16 01:55:00
7:55 PM,40.5,31.5,70,30.21,10.0,ESE,13.8,-,N/A,,Clear,110,2012-11-16 02:55:00
8:55 PM,39.2,30.7,72,30.18,10.0,Calm,Calm,-,N/A,,Clear,0,2012-11-16 03:55:00
9:55 PM,39.9,29.3,66,30.15,10.0,ESE,19.6,-,N/A,,Clear,120,2012-11-16 04:55:00
10:55 PM,39.0,28.6,66,30.14,10.0,East,12.7,-,N/A,,Clear,100,2012-11-16 05:55:00
11:55 PM,39.2,27.7,63,30.13,10.0,ESE,17.3,27.6,N/A,,Clear,110,2012-11-16 06:55:00